WJA2757 EDDH-LOWW
Flight info
| Callsign | WJA2757 |
|---|---|
| Flight time | 1h 21m |
| Altitude | 35000 |
| Route | RAMAR6G RAMAR Z998 RATMO/N0449F370 DCT HDO DCT EVIKU DCT BITSI DCT MIKOV MIKOV8W |
| Aircraft | B738/M-SDE2E3FGHIRWXY/LB1 |
Departure
| Time | 2026-05-05 07:23 |
|---|---|
| Airport | Hamburg Helmut Schmidt Airport (EDDH) |
Arrival
| Time | 2026-05-05 08:44 |
|---|---|
| Airport | Vienna International Airport (LOWW) |
| Time | Latitude | Longitude | Altitude | Speed | Heading |
|---|---|---|---|---|---|
| 2026-05-05 06:47 | 53.62867 | 9.99290 | 34 ft | 0 kts | 243° |
| 2026-05-05 07:14 | 53.62873 | 9.99310 | 34 ft | 2 kts | 242° |
| 2026-05-05 07:14 | 53.62880 | 9.99332 | 33 ft | 2 kts | 243° |
| 2026-05-05 07:15 | 53.62887 | 9.99355 | 33 ft | 2 kts | 248° |
| 2026-05-05 07:15 | 53.62893 | 9.99378 | 33 ft | 2 kts | 242° |
| 2026-05-05 07:15 | 53.62898 | 9.99395 | 33 ft | 0 kts | 244° |
| 2026-05-05 07:15 | 53.62901 | 9.99403 | 33 ft | 0 kts | 198° |
| 2026-05-05 07:16 | 53.62906 | 9.99404 | 33 ft | 0 kts | 153° |
| 2026-05-05 07:16 | 53.62912 | 9.99398 | 33 ft | 0 kts | 152° |
| 2026-05-05 07:19 | 53.62882 | 9.99425 | 33 ft | 11 kts | 153° |
| 2026-05-05 07:20 | 53.62810 | 9.99487 | 35 ft | 10 kts | 152° |
| 2026-05-05 07:20 | 53.62748 | 9.99542 | 36 ft | 9 kts | 153° |
| 2026-05-05 07:20 | 53.62693 | 9.99588 | 37 ft | 8 kts | 153° |
| 2026-05-05 07:20 | 53.62648 | 9.99637 | 38 ft | 8 kts | 129° |
| 2026-05-05 07:21 | 53.62636 | 9.99698 | 39 ft | 1 kts | 86° |
| 2026-05-05 07:21 | 53.62643 | 9.99771 | 38 ft | 9 kts | 69° |
| 2026-05-05 07:21 | 53.62711 | 9.99868 | 36 ft | 12 kts | 1° |
| 2026-05-05 07:21 | 53.62745 | 9.99849 | 35 ft | 2 kts | 332° |
| 2026-05-05 07:22 | 53.62769 | 9.99828 | 33 ft | 5 kts | 333° |
| 2026-05-05 07:22 | 53.62859 | 9.99751 | 30 ft | 45 kts | 333° |
| 2026-05-05 07:22 | 53.63472 | 9.99222 | 37 ft | 145 kts | 333° |
| 2026-05-05 07:22 | 53.64495 | 9.98301 | 445 ft | 187 kts | 333° |
| 2026-05-05 07:23 | 53.65667 | 9.97210 | 1126 ft | 193 kts | 333° |
| 2026-05-05 07:23 | 53.66843 | 9.96090 | 1705 ft | 197 kts | 334° |
| 2026-05-05 07:23 | 53.68024 | 9.94987 | 2229 ft | 192 kts | 334° |
| 2026-05-05 07:23 | 53.69196 | 9.94266 | 3338 ft | 179 kts | 355° |
| 2026-05-05 07:24 | 53.70440 | 9.94460 | 4131 ft | 185 kts | 7° |
| 2026-05-05 07:24 | 53.71600 | 9.95027 | 5006 ft | 184 kts | 36° |
| 2026-05-05 07:24 | 53.72603 | 9.96515 | 5680 ft | 196 kts | 44° |
| 2026-05-05 07:24 | 53.73224 | 9.98597 | 6347 ft | 210 kts | 84° |
| 2026-05-05 07:25 | 53.72925 | 10.00983 | 7012 ft | 221 kts | 117° |
| 2026-05-05 07:25 | 53.72238 | 10.03410 | 7539 ft | 237 kts | 109° |
| 2026-05-05 07:25 | 53.71753 | 10.06113 | 8049 ft | 248 kts | 114° |
| 2026-05-05 07:25 | 53.70877 | 10.08702 | 8560 ft | 259 kts | 126° |
| 2026-05-05 07:26 | 53.69826 | 10.11268 | 9069 ft | 267 kts | 126° |
| 2026-05-05 07:26 | 53.68833 | 10.13915 | 9563 ft | 272 kts | 123° |
| 2026-05-05 07:26 | 53.67872 | 10.16710 | 10042 ft | 276 kts | 121° |
| 2026-05-05 07:26 | 53.66937 | 10.19550 | 10557 ft | 277 kts | 121° |
| 2026-05-05 07:27 | 53.66017 | 10.22376 | 11060 ft | 280 kts | 121° |
| 2026-05-05 07:27 | 53.65068 | 10.25283 | 11570 ft | 283 kts | 121° |
| 2026-05-05 07:27 | 53.64103 | 10.28221 | 12068 ft | 285 kts | 121° |
| 2026-05-05 07:27 | 53.63144 | 10.31136 | 12566 ft | 287 kts | 121° |
| 2026-05-05 07:28 | 53.62178 | 10.34063 | 13064 ft | 289 kts | 122° |
| 2026-05-05 07:28 | 53.61185 | 10.37057 | 13564 ft | 291 kts | 122° |
| 2026-05-05 07:28 | 53.60200 | 10.40033 | 14059 ft | 293 kts | 121° |
| 2026-05-05 07:28 | 53.59204 | 10.43046 | 14554 ft | 296 kts | 122° |
| 2026-05-05 07:29 | 53.58187 | 10.46074 | 15058 ft | 298 kts | 122° |
| 2026-05-05 07:29 | 53.57188 | 10.49098 | 15557 ft | 298 kts | 121° |
| 2026-05-05 07:29 | 53.56175 | 10.52165 | 16059 ft | 301 kts | 122° |
| 2026-05-05 07:29 | 53.55150 | 10.55221 | 16562 ft | 305 kts | 122° |
| 2026-05-05 07:30 | 53.54104 | 10.58314 | 17059 ft | 307 kts | 122° |
| 2026-05-05 07:30 | 53.51991 | 10.64561 | 18054 ft | 310 kts | 123° |
| 2026-05-05 07:30 | 53.50910 | 10.67769 | 18554 ft | 312 kts | 123° |
| 2026-05-05 07:31 | 53.49842 | 10.70941 | 19053 ft | 315 kts | 123° |
| 2026-05-05 07:31 | 53.48763 | 10.74161 | 19560 ft | 316 kts | 123° |
| 2026-05-05 07:31 | 53.47684 | 10.77340 | 20064 ft | 317 kts | 123° |
| 2026-05-05 07:31 | 53.46576 | 10.80595 | 20591 ft | 319 kts | 124° |
| 2026-05-05 07:32 | 53.45478 | 10.83841 | 21097 ft | 322 kts | 123° |
| 2026-05-05 07:32 | 53.44373 | 10.87102 | 21606 ft | 325 kts | 123° |
| 2026-05-05 07:32 | 53.43252 | 10.90405 | 22122 ft | 327 kts | 123° |
| 2026-05-05 07:32 | 53.42132 | 10.93698 | 22631 ft | 329 kts | 123° |
| 2026-05-05 07:33 | 53.40999 | 10.97025 | 23149 ft | 331 kts | 123° |
| 2026-05-05 07:33 | 53.39852 | 11.00390 | 23673 ft | 332 kts | 123° |
| 2026-05-05 07:33 | 53.38714 | 11.03730 | 24198 ft | 332 kts | 123° |
| 2026-05-05 07:33 | 53.37569 | 11.07080 | 24715 ft | 333 kts | 123° |
| 2026-05-05 07:34 | 53.36410 | 11.10469 | 25251 ft | 332 kts | 124° |
| 2026-05-05 07:34 | 53.35273 | 11.13790 | 25789 ft | 332 kts | 124° |
| 2026-05-05 07:34 | 53.34135 | 11.17111 | 26325 ft | 330 kts | 124° |
| 2026-05-05 07:34 | 53.32991 | 11.20445 | 26866 ft | 328 kts | 125° |
| 2026-05-05 07:35 | 53.31848 | 11.23770 | 27408 ft | 326 kts | 125° |
| 2026-05-05 07:35 | 53.30734 | 11.27008 | 27941 ft | 323 kts | 125° |
| 2026-05-05 07:35 | 53.29610 | 11.30275 | 28493 ft | 319 kts | 126° |
| 2026-05-05 07:35 | 53.28514 | 11.33458 | 28991 ft | 316 kts | 126° |
| 2026-05-05 07:36 | 53.27391 | 11.36647 | 29257 ft | 319 kts | 128° |
| 2026-05-05 07:36 | 53.26101 | 11.39685 | 29537 ft | 317 kts | 137° |
| 2026-05-05 07:36 | 53.24593 | 11.42345 | 29818 ft | 316 kts | 143° |
| 2026-05-05 07:36 | 53.22980 | 11.44818 | 30087 ft | 318 kts | 145° |
| 2026-05-05 07:37 | 53.21321 | 11.47265 | 30358 ft | 321 kts | 146° |
| 2026-05-05 07:37 | 53.19630 | 11.49762 | 30640 ft | 325 kts | 146° |
| 2026-05-05 07:37 | 53.17926 | 11.52307 | 30902 ft | 328 kts | 145° |
| 2026-05-05 07:37 | 53.16224 | 11.54874 | 31159 ft | 331 kts | 145° |
| 2026-05-05 07:38 | 53.14521 | 11.57458 | 31416 ft | 333 kts | 144° |
| 2026-05-05 07:38 | 53.12806 | 11.60074 | 31673 ft | 336 kts | 144° |
| 2026-05-05 07:38 | 53.11082 | 11.62709 | 31931 ft | 338 kts | 144° |
| 2026-05-05 07:38 | 53.09339 | 11.65373 | 32189 ft | 340 kts | 145° |
| 2026-05-05 07:39 | 53.07597 | 11.68033 | 32440 ft | 342 kts | 145° |
| 2026-05-05 07:39 | 53.05819 | 11.70745 | 32702 ft | 343 kts | 145° |
| 2026-05-05 07:39 | 53.04056 | 11.73428 | 32961 ft | 345 kts | 145° |
| 2026-05-05 07:39 | 53.02309 | 11.76085 | 33216 ft | 346 kts | 145° |
| 2026-05-05 07:40 | 53.00519 | 11.78807 | 33476 ft | 347 kts | 144° |
| 2026-05-05 07:40 | 52.98815 | 11.81624 | 33731 ft | 351 kts | 139° |
| 2026-05-05 07:40 | 52.97228 | 11.84739 | 33991 ft | 355 kts | 135° |
| 2026-05-05 07:40 | 52.95723 | 11.87985 | 34252 ft | 356 kts | 134° |
| 2026-05-05 07:41 | 52.94241 | 11.91290 | 34511 ft | 357 kts | 133° |
| 2026-05-05 07:41 | 52.92779 | 11.94567 | 34769 ft | 357 kts | 134° |
| 2026-05-05 07:41 | 52.91294 | 11.97873 | 34925 ft | 360 kts | 134° |
| 2026-05-05 07:41 | 52.89778 | 12.01211 | 34937 ft | 368 kts | 134° |
| 2026-05-05 07:42 | 52.86610 | 12.08115 | 34937 ft | 384 kts | 134° |
| 2026-05-05 07:42 | 52.83299 | 12.15305 | 34943 ft | 400 kts | 133° |
| 2026-05-05 07:43 | 52.79868 | 12.22737 | 34935 ft | 417 kts | 133° |
| 2026-05-05 07:43 | 52.76279 | 12.30491 | 34938 ft | 433 kts | 133° |
| 2026-05-05 07:44 | 52.72543 | 12.38482 | 34940 ft | 449 kts | 133° |
| 2026-05-05 07:44 | 52.68167 | 12.45977 | 34941 ft | 456 kts | 146° |
| 2026-05-05 07:45 | 52.63020 | 12.52154 | 34935 ft | 463 kts | 151° |
| 2026-05-05 07:45 | 52.57660 | 12.58047 | 34931 ft | 461 kts | 151° |
| 2026-05-05 07:46 | 52.52322 | 12.63907 | 34933 ft | 462 kts | 151° |
| 2026-05-05 07:46 | 52.46975 | 12.69840 | 34932 ft | 461 kts | 151° |
| 2026-05-05 07:47 | 52.41703 | 12.75731 | 34927 ft | 462 kts | 151° |
| 2026-05-05 07:47 | 52.36408 | 12.81665 | 34920 ft | 461 kts | 151° |
| 2026-05-05 07:48 | 52.31143 | 12.87563 | 34927 ft | 460 kts | 151° |
| 2026-05-05 07:48 | 52.25876 | 12.93450 | 34921 ft | 461 kts | 150° |
| 2026-05-05 07:49 | 52.20579 | 12.99360 | 34924 ft | 461 kts | 151° |
| 2026-05-05 07:49 | 52.15293 | 13.05239 | 34924 ft | 460 kts | 150° |
| 2026-05-05 07:50 | 52.09993 | 13.11116 | 34925 ft | 464 kts | 150° |
| 2026-05-05 07:50 | 52.04646 | 13.17041 | 34922 ft | 462 kts | 150° |
| 2026-05-05 07:51 | 51.99352 | 13.22882 | 34920 ft | 464 kts | 151° |
| 2026-05-05 07:51 | 51.94026 | 13.28736 | 34921 ft | 463 kts | 150° |
| 2026-05-05 07:52 | 51.88706 | 13.34573 | 34920 ft | 462 kts | 150° |
| 2026-05-05 07:52 | 51.83378 | 13.40398 | 34921 ft | 464 kts | 150° |
| 2026-05-05 07:53 | 51.78034 | 13.46223 | 34921 ft | 464 kts | 150° |
| 2026-05-05 07:53 | 51.72698 | 13.52021 | 34918 ft | 464 kts | 150° |
| 2026-05-05 07:54 | 51.67374 | 13.57788 | 34918 ft | 463 kts | 150° |
| 2026-05-05 07:54 | 51.62027 | 13.63562 | 34915 ft | 462 kts | 150° |
| 2026-05-05 07:55 | 51.56685 | 13.69317 | 34913 ft | 461 kts | 151° |
| 2026-05-05 07:55 | 51.51369 | 13.75021 | 34914 ft | 462 kts | 151° |
| 2026-05-05 07:56 | 51.45990 | 13.80773 | 34912 ft | 464 kts | 151° |
| 2026-05-05 07:56 | 51.40639 | 13.86483 | 34911 ft | 463 kts | 150° |
| 2026-05-05 07:57 | 51.35300 | 13.92168 | 34909 ft | 463 kts | 150° |
| 2026-05-05 07:57 | 51.29916 | 13.97887 | 34910 ft | 463 kts | 150° |
| 2026-05-05 07:58 | 51.24591 | 14.03527 | 34911 ft | 462 kts | 150° |
| 2026-05-05 07:58 | 51.19210 | 14.09209 | 34908 ft | 462 kts | 150° |
| 2026-05-05 07:59 | 51.13860 | 14.14840 | 34905 ft | 461 kts | 150° |
| 2026-05-05 07:59 | 51.08499 | 14.20468 | 34906 ft | 462 kts | 150° |
| 2026-05-05 08:00 | 51.03122 | 14.26099 | 34906 ft | 463 kts | 150° |
| 2026-05-05 08:00 | 50.97796 | 14.31662 | 34906 ft | 462 kts | 149° |
| 2026-05-05 08:01 | 50.92220 | 14.36716 | 34901 ft | 457 kts | 160° |
| 2026-05-05 08:01 | 50.86190 | 14.39768 | 34901 ft | 454 kts | 169° |
| 2026-05-05 08:02 | 50.80095 | 14.41978 | 34914 ft | 452 kts | 171° |
| 2026-05-05 08:02 | 50.73925 | 14.44100 | 34905 ft | 452 kts | 171° |
| 2026-05-05 08:03 | 50.67736 | 14.46269 | 34906 ft | 453 kts | 170° |
| 2026-05-05 08:03 | 50.61616 | 14.48462 | 34900 ft | 453 kts | 170° |
| 2026-05-05 08:04 | 50.55472 | 14.50692 | 34896 ft | 454 kts | 170° |
| 2026-05-05 08:04 | 50.49312 | 14.53053 | 34897 ft | 456 kts | 166° |
| 2026-05-05 08:05 | 50.46377 | 14.54832 | 34902 ft | 460 kts | 155° |
| 2026-05-05 08:05 | 50.43654 | 14.57626 | 34905 ft | 465 kts | 143° |
| 2026-05-05 08:05 | 50.38856 | 14.64441 | 34898 ft | 468 kts | 138° |
| 2026-05-05 08:06 | 50.34194 | 14.71705 | 34899 ft | 466 kts | 137° |
| 2026-05-05 08:06 | 50.29585 | 14.78899 | 34895 ft | 466 kts | 138° |
| 2026-05-05 08:07 | 50.24929 | 14.86035 | 34893 ft | 466 kts | 138° |
| 2026-05-05 08:07 | 50.20243 | 14.93121 | 34895 ft | 466 kts | 138° |
| 2026-05-05 08:08 | 50.15568 | 15.00135 | 34902 ft | 467 kts | 139° |
| 2026-05-05 08:08 | 50.10838 | 15.07198 | 34899 ft | 467 kts | 139° |
| 2026-05-05 08:09 | 50.06140 | 15.14185 | 34891 ft | 466 kts | 139° |
| 2026-05-05 08:09 | 50.01458 | 15.21131 | 34890 ft | 465 kts | 139° |
| 2026-05-05 08:10 | 49.96767 | 15.28072 | 34894 ft | 465 kts | 138° |
| 2026-05-05 08:10 | 49.92090 | 15.34974 | 34892 ft | 464 kts | 138° |
| 2026-05-05 08:11 | 49.87382 | 15.41901 | 34892 ft | 463 kts | 138° |
| 2026-05-05 08:11 | 49.82706 | 15.48760 | 34891 ft | 463 kts | 138° |
| 2026-05-05 08:12 | 49.78046 | 15.55576 | 34895 ft | 464 kts | 138° |
| 2026-05-05 08:12 | 49.73354 | 15.62420 | 34901 ft | 463 kts | 138° |
| 2026-05-05 08:13 | 49.68670 | 15.69232 | 34888 ft | 463 kts | 139° |
| 2026-05-05 08:13 | 49.63976 | 15.76039 | 34899 ft | 463 kts | 139° |
| 2026-05-05 08:14 | 49.59254 | 15.82866 | 34899 ft | 463 kts | 139° |
| 2026-05-05 08:14 | 49.54585 | 15.89600 | 34908 ft | 463 kts | 139° |
| 2026-05-05 08:15 | 49.49851 | 15.96410 | 34894 ft | 462 kts | 139° |
| 2026-05-05 08:15 | 49.45171 | 16.03124 | 34899 ft | 462 kts | 139° |
| 2026-05-05 08:16 | 49.40463 | 16.09860 | 34905 ft | 461 kts | 139° |
| 2026-05-05 08:16 | 49.35743 | 16.16596 | 34913 ft | 462 kts | 139° |
| 2026-05-05 08:17 | 49.30878 | 16.23050 | 34909 ft | 460 kts | 146° |
| 2026-05-05 08:17 | 49.25435 | 16.28056 | 34924 ft | 458 kts | 155° |
| 2026-05-05 08:18 | 49.19691 | 16.32293 | 34914 ft | 457 kts | 157° |
| 2026-05-05 08:18 | 49.13932 | 16.36373 | 34918 ft | 457 kts | 157° |
| 2026-05-05 08:19 | 49.08191 | 16.40471 | 34921 ft | 457 kts | 156° |
| 2026-05-05 08:19 | 49.02433 | 16.44628 | 34927 ft | 457 kts | 156° |
| 2026-05-05 08:20 | 48.96694 | 16.48800 | 34917 ft | 458 kts | 156° |
| 2026-05-05 08:20 | 48.90941 | 16.52992 | 34920 ft | 458 kts | 156° |
| 2026-05-05 08:21 | 48.85199 | 16.57176 | 34915 ft | 458 kts | 156° |
| 2026-05-05 08:21 | 48.79415 | 16.61247 | 34914 ft | 457 kts | 159° |
| 2026-05-05 08:22 | 48.73392 | 16.64148 | 34911 ft | 454 kts | 168° |
| 2026-05-05 08:22 | 48.67242 | 16.66173 | 34909 ft | 454 kts | 171° |
| 2026-05-05 08:23 | 48.61042 | 16.68053 | 34911 ft | 454 kts | 171° |
| 2026-05-05 08:23 | 48.54842 | 16.69920 | 34910 ft | 453 kts | 172° |
| 2026-05-05 08:24 | 48.48608 | 16.71523 | 34912 ft | 453 kts | 173° |
| 2026-05-05 08:24 | 48.42348 | 16.72834 | 34917 ft | 453 kts | 175° |
| 2026-05-05 08:25 | 48.36089 | 16.73869 | 34914 ft | 452 kts | 176° |
| 2026-05-05 08:25 | 48.32965 | 16.74288 | 34680 ft | 456 kts | 177° |
| 2026-05-05 08:25 | 48.29824 | 16.74649 | 33868 ft | 447 kts | 178° |
| 2026-05-05 08:26 | 48.26720 | 16.74727 | 33088 ft | 446 kts | 184° |
| 2026-05-05 08:26 | 48.23650 | 16.74315 | 32307 ft | 449 kts | 190° |
| 2026-05-05 08:26 | 48.20562 | 16.73389 | 31512 ft | 449 kts | 196° |
| 2026-05-05 08:26 | 48.17617 | 16.71998 | 30733 ft | 449 kts | 201° |
| 2026-05-05 08:27 | 48.14755 | 16.70121 | 29916 ft | 450 kts | 207° |
| 2026-05-05 08:27 | 48.12062 | 16.67751 | 29092 ft | 453 kts | 215° |
| 2026-05-05 08:27 | 48.09613 | 16.64750 | 28268 ft | 456 kts | 224° |
| 2026-05-05 08:27 | 48.07525 | 16.61223 | 27451 ft | 459 kts | 233° |
| 2026-05-05 08:28 | 48.05811 | 16.57197 | 26627 ft | 462 kts | 242° |
| 2026-05-05 08:28 | 48.04533 | 16.52786 | 25812 ft | 466 kts | 251° |
| 2026-05-05 08:28 | 48.03726 | 16.48137 | 25014 ft | 468 kts | 259° |
| 2026-05-05 08:28 | 48.03280 | 16.43321 | 24203 ft | 464 kts | 264° |
| 2026-05-05 08:29 | 48.03005 | 16.38527 | 23399 ft | 459 kts | 265° |
| 2026-05-05 08:29 | 48.02829 | 16.33826 | 22583 ft | 456 kts | 269° |
| 2026-05-05 08:29 | 48.03052 | 16.29209 | 21786 ft | 435 kts | 277° |
| 2026-05-05 08:30 | 48.04887 | 16.21087 | 20239 ft | 399 kts | 297° |
| 2026-05-05 08:30 | 48.06424 | 16.17721 | 19476 ft | 386 kts | 308° |
| 2026-05-05 08:30 | 48.08331 | 16.14900 | 18714 ft | 374 kts | 320° |
| 2026-05-05 08:30 | 48.10558 | 16.13028 | 17931 ft | 370 kts | 342° |
| 2026-05-05 08:31 | 48.13102 | 16.12663 | 17182 ft | 361 kts | 8° |
| 2026-05-05 08:31 | 48.15468 | 16.13736 | 16458 ft | 351 kts | 26° |
| 2026-05-05 08:31 | 48.17568 | 16.15473 | 15747 ft | 343 kts | 31° |
| 2026-05-05 08:31 | 48.19658 | 16.17154 | 14989 ft | 337 kts | 25° |
| 2026-05-05 08:32 | 48.21748 | 16.18680 | 14219 ft | 336 kts | 34° |
| 2026-05-05 08:32 | 48.23587 | 16.20795 | 13423 ft | 331 kts | 38° |
| 2026-05-05 08:32 | 48.25624 | 16.22330 | 12683 ft | 329 kts | 13° |
| 2026-05-05 08:32 | 48.27894 | 16.22639 | 11936 ft | 324 kts | 358° |
| 2026-05-05 08:33 | 48.30116 | 16.22473 | 11193 ft | 320 kts | 354° |
| 2026-05-05 08:33 | 48.32313 | 16.21926 | 10412 ft | 316 kts | 338° |
| 2026-05-05 08:33 | 48.34197 | 16.20365 | 9677 ft | 309 kts | 320° |
| 2026-05-05 08:33 | 48.35831 | 16.18368 | 8942 ft | 305 kts | 316° |
| 2026-05-05 08:34 | 48.37557 | 16.16538 | 8194 ft | 311 kts | 332° |
| 2026-05-05 08:34 | 48.39565 | 16.15373 | 7468 ft | 308 kts | 338° |
| 2026-05-05 08:34 | 48.41388 | 16.13789 | 6720 ft | 300 kts | 312° |
| 2026-05-05 08:34 | 48.42422 | 16.11195 | 6097 ft | 286 kts | 281° |
| 2026-05-05 08:35 | 48.42395 | 16.08333 | 5476 ft | 273 kts | 249° |
| 2026-05-05 08:35 | 48.41385 | 16.06078 | 4877 ft | 261 kts | 216° |
| 2026-05-05 08:35 | 48.39763 | 16.05127 | 4278 ft | 249 kts | 181° |
| 2026-05-05 08:35 | 48.38154 | 16.05788 | 3678 ft | 241 kts | 144° |
| 2026-05-05 08:36 | 48.37229 | 16.07740 | 3407 ft | 229 kts | 107° |
| 2026-05-05 08:36 | 48.36774 | 16.10039 | 3397 ft | 225 kts | 116° |
| 2026-05-05 08:36 | 48.35715 | 16.11691 | 3409 ft | 224 kts | 154° |
| 2026-05-05 08:36 | 48.34165 | 16.12079 | 3419 ft | 228 kts | 180° |
| 2026-05-05 08:37 | 48.32666 | 16.12253 | 3400 ft | 203 kts | 159° |
| 2026-05-05 08:37 | 48.31462 | 16.13323 | 3418 ft | 203 kts | 143° |
| 2026-05-05 08:37 | 48.30334 | 16.14590 | 3409 ft | 201 kts | 143° |
| 2026-05-05 08:37 | 48.29208 | 16.15842 | 3407 ft | 204 kts | 143° |
| 2026-05-05 08:38 | 48.28051 | 16.17110 | 3407 ft | 203 kts | 143° |
| 2026-05-05 08:38 | 48.26905 | 16.18352 | 3406 ft | 202 kts | 143° |
| 2026-05-05 08:38 | 48.25774 | 16.19580 | 3405 ft | 201 kts | 143° |
| 2026-05-05 08:38 | 48.24618 | 16.20778 | 3406 ft | 201 kts | 146° |
| 2026-05-05 08:39 | 48.23565 | 16.22134 | 3409 ft | 202 kts | 131° |
| 2026-05-05 08:39 | 48.22671 | 16.23764 | 3414 ft | 199 kts | 129° |
| 2026-05-05 08:39 | 48.21809 | 16.25414 | 3406 ft | 201 kts | 127° |
| 2026-05-05 08:39 | 48.21064 | 16.27172 | 3405 ft | 202 kts | 121° |
| 2026-05-05 08:40 | 48.20361 | 16.29007 | 3415 ft | 200 kts | 121° |
| 2026-05-05 08:40 | 48.19680 | 16.30774 | 3300 ft | 193 kts | 122° |
| 2026-05-05 08:40 | 48.19034 | 16.32526 | 3145 ft | 189 kts | 118° |
| 2026-05-05 08:40 | 48.18442 | 16.34332 | 3039 ft | 193 kts | 117° |
| 2026-05-05 08:41 | 48.17865 | 16.36097 | 2958 ft | 188 kts | 117° |
| 2026-05-05 08:41 | 48.17292 | 16.37867 | 2816 ft | 177 kts | 117° |
| 2026-05-05 08:41 | 48.16806 | 16.39384 | 2722 ft | 159 kts | 118° |
| 2026-05-05 08:41 | 48.16329 | 16.40888 | 2609 ft | 158 kts | 116° |
| 2026-05-05 08:42 | 48.15846 | 16.42396 | 2349 ft | 170 kts | 117° |
| 2026-05-05 08:42 | 48.15333 | 16.43973 | 2117 ft | 157 kts | 117° |
| 2026-05-05 08:42 | 48.14872 | 16.45392 | 1889 ft | 152 kts | 117° |
| 2026-05-05 08:42 | 48.14410 | 16.46814 | 1662 ft | 151 kts | 118° |
| 2026-05-05 08:43 | 48.13953 | 16.48220 | 1423 ft | 151 kts | 117° |
| 2026-05-05 08:43 | 48.13473 | 16.49681 | 1184 ft | 157 kts | 117° |
| 2026-05-05 08:43 | 48.12993 | 16.51151 | 949 ft | 158 kts | 116° |
| 2026-05-05 08:43 | 48.12513 | 16.52627 | 725 ft | 156 kts | 116° |
| 2026-05-05 08:44 | 48.12056 | 16.54030 | 579 ft | 138 kts | 116° |
| 2026-05-05 08:44 | 48.11732 | 16.54945 | 583 ft | 66 kts | 108° |
| 2026-05-05 08:44 | 48.11565 | 16.55532 | 582 ft | 56 kts | 114° |
| 2026-05-05 08:44 | 48.11504 | 16.56005 | 586 ft | 31 kts | 87° |
| 2026-05-05 08:45 | 48.11597 | 16.56178 | 589 ft | 21 kts | 28° |
| 2026-05-05 08:45 | 48.11712 | 16.56284 | 591 ft | 15 kts | 27° |
| 2026-05-05 08:45 | 48.11743 | 16.56379 | 594 ft | 9 kts | 97° |
| 2026-05-05 08:45 | 48.11731 | 16.56453 | 596 ft | 6 kts | 113° |
| 2026-05-05 08:46 | 48.11707 | 16.56524 | 597 ft | 10 kts | 116° |
| 2026-05-05 08:46 | 48.11667 | 16.56648 | 601 ft | 14 kts | 116° |
| 2026-05-05 08:46 | 48.11626 | 16.56765 | 604 ft | 9 kts | 143° |
| 2026-05-05 08:46 | 48.11578 | 16.56747 | 603 ft | 3 kts | 207° |
| 2026-05-05 08:47 | 48.11561 | 16.56734 | 603 ft | 0 kts | 206° |
| 2026-05-05 08:47 | 48.11557 | 16.56731 | 603 ft | 0 kts | 205° |